Time;durP1;ratioP1;P1;durP2;ratioP2;P2;SDS_P1;SDS_P2;PMS_P1;PMS_P2;Temp;Humidity;BMP_temperature;BMP_pressure;BME280_temperature;BME280_humidity;BME280_pressure;Samples;Min_cycle;Max_cycle;Signal;HPM_P1;HPM_P2
2021/09/20 00:01:36;;;;;;;4.80;3.00;;;;;;;11.52;66.84;101157.31;1649522;84;21008;-77
2021/09/20 00:04:03;;;;;;;;;;;;;;;11.54;66.90;101159.00;1664640;84;21025;-78
2021/09/20 00:06:29;;;;;;;3.47;3.17;;;;;;;11.53;67.10;101158.59;1661696;84;20095;-78
2021/09/20 00:08:55;;;;;;;3.52;2.83;;;;;;;11.53;66.93;101158.59;1670213;84;20903;-78
2021/09/20 00:11:22;;;;;;;6.97;2.80;;;;;;;11.53;66.92;101162.47;1677190;84;20895;-78
2021/09/20 00:13:48;;;;;;;3.30;3.00;;;;;;;11.55;66.93;101167.63;1665225;84;20911;-78
2021/09/20 00:16:15;;;;;;;4.37;2.83;;;;;;;11.52;66.96;101162.48;1661075;83;20917;-78
2021/09/20 00:18:41;;;;;;;5.78;2.90;;;;;;;11.49;66.97;101156.05;1655058;84;20969;-78
2021/09/20 00:21:11;;;;;;;3.02;2.72;;;;;;;11.49;67.04;101158.64;1664738;84;20917;-78
2021/09/20 00:23:37;;;;;;;3.27;2.80;;;;;;;11.51;67.08;101156.89;1655865;84;20925;-78
2021/09/20 00:26:03;;;;;;;5.70;3.08;;;;;;;11.52;67.07;101162.05;1663942;84;20897;-78
2021/09/20 00:28:29;;;;;;;3.90;3.15;;;;;;;11.52;67.08;101160.75;1648439;84;20872;-78
2021/09/20 00:30:56;;;;;;;5.87;2.83;;;;;;;11.53;67.15;101162.91;1654334;84;21074;-78
2021/09/20 00:33:23;;;;;;;6.10;2.80;;;;;;;11.53;67.14;101162.91;1675457;84;21060;-78
2021/09/20 00:35:50;;;;;;;4.58;2.80;;;;;;;11.53;67.20;101165.50;1652954;84;21133;-78
2021/09/20 00:38:16;;;;;;;5.78;2.70;;;;;;;11.54;67.25;101166.78;1652131;84;21127;-78
2021/09/20 00:40:44;;;;;;;3.62;2.52;;;;;;;11.54;67.25;101167.22;1643702;84;21105;-77
2021/09/20 00:43:10;;;;;;;4.70;2.83;;;;;;;11.54;67.25;101160.73;1665480;84;21139;-77
2021/09/20 00:45:37;;;;;;;3.62;3.33;;;;;;;11.52;67.23;101167.23;1661123;85;21139;-77
2021/09/20 00:48:06;;;;;;;3.60;2.77;;;;;;;11.49;67.22;101169.86;1649083;85;21110;-77
2021/09/20 00:50:33;;;;;;;3.60;3.00;;;;;;;11.46;67.25;101169.03;1660069;85;20931;-77
2021/09/20 00:53:00;;;;;;;3.33;3.00;;;;;;;11.45;67.31;101165.58;1647836;84;21035;-77
2021/09/20 00:55:28;;;;;;;4.87;3.50;;;;;;;11.43;67.31;101166.50;1644990;85;21050;-77
2021/09/20 00:57:56;;;;;;;5.33;3.12;;;;;;;11.41;67.35;101167.81;1652460;84;32550;-77
2021/09/20 01:00:23;;;;;;;5.33;2.90;;;;;;;11.41;67.39;101164.37;1650351;84;21093;-77
2021/09/20 01:02:49;;;;;;;3.60;2.75;;;;;;;11.40;67.42;101170.42;1651841;84;21125;-78
2021/09/20 01:05:15;;;;;;;6.28;3.08;;;;;;;11.38;67.41;101167.84;1653684;84;21056;-78
2021/09/20 01:07:42;;;;;;;4.87;3.25;;;;;;;11.37;67.44;101170.45;1643536;84;21118;-78
2021/09/20 01:10:10;;;;;;;3.50;3.05;;;;;;;11.38;67.47;101172.16;1661971;84;21002;-77
2021/09/20 01:12:37;;;;;;;3.15;2.85;;;;;;;11.38;67.50;101172.16;1654806;84;20961;-78
2021/09/20 01:15:07;;;;;;;3.25;2.95;;;;;;;11.37;67.49;101165.27;1647195;84;21085;-78
2021/09/20 01:17:34;;;;;;;2.77;2.52;;;;;;;11.36;67.49;101171.33;1652030;84;20938;-78
2021/09/20 01:20:00;;;;;;;3.40;3.00;;;;;;;11.35;67.52;101166.58;1664522;84;20945;-78
2021/09/20 01:22:27;;;;;;;5.12;3.10;;;;;;;11.35;67.55;101167.02;1648790;84;20987;-77
2021/09/20 01:24:54;;;;;;;;;;;;;;;11.33;67.55;101168.77;1656897;84;20987;-77
2021/09/20 01:27:22;;;;;;;5.40;2.87;;;;;;;11.32;67.69;101168.34;1645037;84;20132;-77
2021/09/20 01:29:49;;;;;;;3.10;2.80;;;;;;;11.29;67.59;101170.53;1657016;84;26743;-77
2021/09/20 01:32:16;;;;;;;4.87;3.27;;;;;;;11.27;67.64;101166.66;1655181;84;20966;-77
2021/09/20 01:34:43;;;;;;;5.20;3.12;;;;;;;11.28;67.65;101168.81;1660358;84;20915;-77
2021/09/20 01:37:09;;;;;;;;;;;;;;;11.27;67.67;101167.09;1659032;84;20918;-77
2021/09/20 01:39:40;;;;;;;3.22;2.83;;;;;;;11.26;67.88;101164.94;1654674;84;20103;-77
2021/09/20 01:42:07;;;;;;;7.25;2.90;;;;;;;11.26;67.73;101164.94;1652419;84;20929;-77
2021/09/20 01:44:34;;;;;;;3.60;3.12;;;;;;;11.25;67.75;101170.99;1640029;84;20926;-77
2021/09/20 01:47:00;;;;;;;;;;;;;;;11.25;67.76;101168.84;1622905;84;20919;-77
2021/09/20 01:49:28;;;;;;;3.20;2.90;;;;;;;11.24;67.96;101169.28;1647745;86;20159;-77
2021/09/20 01:51:55;;;;;;;4.28;2.85;;;;;;;11.23;67.80;101168.00;1651191;86;20939;-77
2021/09/20 01:54:26;;;;;;;3.72;3.42;;;;;;;11.23;67.81;101174.47;1642902;86;20938;-77
2021/09/20 01:56:53;;;;;;;5.45;3.10;;;;;;;11.21;67.81;101180.09;1639783;86;20968;-77
2021/09/20 01:59:19;;;;;;;2.83;2.62;;;;;;;11.20;67.87;101166.73;1643606;86;20882;-77
2021/09/20 02:01:46;;;;;;;;;;;;;;;11.19;67.88;101168.46;1652631;85;20946;-78
2021/09/20 02:04:12;;;;;;;3.72;3.08;;;;;;;11.20;68.07;101171.91;1657578;85;20142;-78
2021/09/20 02:06:39;;;;;;;5.33;3.62;;;;;;;11.19;67.92;101172.78;1644513;86;20944;-78
2021/09/20 02:09:08;;;;;;;7.90;3.20;;;;;;;11.17;67.96;101175.39;1639390;86;20954;-78
2021/09/20 02:11:33;;;;;;;7.80;3.52;;;;;;;11.15;67.99;101171.95;1651275;86;21472;-78
2021/09/20 02:14:00;;;;;;;3.80;3.50;;;;;;;11.16;68.02;101166.34;1644793;85;21021;-78
2021/09/20 02:16:26;;;;;;;3.90;3.30;;;;;;;11.16;68.07;101170.22;1649212;85;21071;-78
2021/09/20 02:18:52;;;;;;;8.25;4.22;;;;;;;11.18;68.08;101167.18;1644791;86;21109;-78
2021/09/20 02:21:18;;;;;;;9.45;3.47;;;;;;;11.18;68.02;101167.18;1638750;86;21173;-78
2021/09/20 02:23:48;;;;;;;5.37;3.02;;;;;;;11.15;68.10;101171.95;1643083;86;21144;-78
2021/09/20 02:26:14;;;;;;;3.55;3.22;;;;;;;11.14;68.12;101163.77;1639536;86;21072;-78
2021/09/20 02:28:40;;;;;;;3.90;3.15;;;;;;;11.14;68.16;101164.20;1605434;88;21083;-78
2021/09/20 02:31:09;;;;;;;3.72;3.42;;;;;;;11.16;68.18;101163.75;1607068;88;21077;-77
2021/09/20 02:33:38;;;;;;;4.30;3.30;;;;;;;11.16;68.20;101171.52;1654257;85;20996;-77
2021/09/20 02:36:07;;;;;;;3.50;3.20;;;;;;;11.13;68.22;101167.23;1644076;86;20938;-77
2021/09/20 02:38:35;;;;;;;4.12;3.33;;;;;;;11.13;68.27;101164.64;1644378;86;21138;-77
2021/09/20 02:41:01;;;;;;;5.92;2.95;;;;;;;11.16;68.28;101163.31;1646619;86;21148;-77
2021/09/20 02:43:28;;;;;;;3.25;2.95;;;;;;;11.15;68.29;101164.62;1642456;86;21029;-77
2021/09/20 02:45:54;;;;;;;6.20;3.27;;;;;;;11.13;68.30;101164.64;1648799;85;22223;-77
2021/09/20 02:48:23;;;;;;;6.40;3.02;;;;;;;11.13;68.32;101167.66;1646668;86;21086;-77
2021/09/20 02:50:50;;;;;;;4.40;3.35;;;;;;;11.12;68.34;101160.33;1644813;86;21065;-77
2021/09/20 02:53:16;;;;;;;4.03;3.45;;;;;;;11.10;68.36;101165.96;1642489;85;21113;-77
2021/09/20 02:55:56;;;;;;;5.08;3.20;;;;;;;11.10;68.40;101158.63;1643579;86;21108;-77
2021/09/20 02:58:22;;;;;;;;;;;;;;;11.11;68.41;101164.23;1648383;86;21530;-77
2021/09/20 03:00:49;;;;;;;5.33;3.33;;;;;;;11.10;68.63;101162.08;1645584;86;20179;-77
2021/09/20 03:03:16;;;;;;;7.42;3.25;;;;;;;11.10;68.47;101167.25;1652894;85;21087;-78
2021/09/20 03:05:42;;;;;;;7.42;3.37;;;;;;;11.09;68.49;101169.42;1637288;86;21082;-77
2021/09/20 03:08:08;;;;;;;3.30;3.00;;;;;;;11.10;68.50;101166.39;1644589;85;21041;-77
2021/09/20 03:10:36;;;;;;;3.55;3.25;;;;;;;11.07;68.53;101167.28;1644109;85;21102;-77
2021/09/20 03:13:03;;;;;;;5.10;3.92;;;;;;;11.07;68.57;101164.69;1645982;85;21146;-77
2021/09/20 03:15:29;;;;;;;;;;;;;;;11.08;68.59;101165.11;1650550;85;21005;-77
2021/09/20 03:17:56;;;;;;;3.45;3.15;;;;;;;11.07;68.75;101160.81;1611635;87;20144;-77
2021/09/20 03:20:22;;;;;;;3.52;2.60;;;;;;;11.06;68.62;101162.12;1609783;87;20940;-77
2021/09/20 03:22:49;;;;;;;3.45;3.15;;;;;;;11.06;68.69;101163.41;1608450;87;26873;-77
2021/09/20 03:25:15;;;;;;;3.85;3.20;;;;;;;11.07;68.71;101163.40;1610188;87;20995;-77
2021/09/20 03:27:42;;;;;;;4.33;3.25;;;;;;;11.08;68.71;101161.67;1608570;87;20956;-77
2021/09/20 03:30:12;;;;;;;5.20;2.98;;;;;;;11.07;68.78;101159.52;1647690;85;21476;-77
2021/09/20 03:32:40;;;;;;;3.27;2.77;;;;;;;11.09;68.78;101159.50;1648012;85;20946;-77
2021/09/20 03:35:07;;;;;;;4.42;3.33;;;;;;;11.08;68.75;101161.67;1650395;85;20980;-77
2021/09/20 03:37:34;;;;;;;7.97;3.10;;;;;;;11.07;68.82;101159.95;1650234;85;20950;-77
2021/09/20 03:40:01;;;;;;;3.70;3.40;;;;;;;11.06;68.85;101164.27;1641408;85;26340;-77
2021/09/20 03:42:27;;;;;;;6.53;3.35;;;;;;;11.06;68.88;101165.56;1647333;85;20959;-77
2021/09/20 03:44:53;;;;;;;4.45;3.75;;;;;;;11.07;68.92;101171.59;1638376;85;21447;-77
2021/09/20 03:47:20;;;;;;;4.87;3.20;;;;;;;11.06;68.96;101166.86;1626040;86;21921;-77
2021/09/20 03:49:47;;;;;;;3.42;2.95;;;;;;;11.07;68.99;101171.59;1647624;85;20936;-77
2021/09/20 03:52:13;;;;;;;5.55;2.80;;;;;;;11.06;69.00;101170.74;1646499;85;20990;-77
2021/09/20 03:54:40;;;;;;;5.33;3.42;;;;;;;11.05;69.04;101169.02;1643526;86;20922;-77
2021/09/20 03:57:06;;;;;;;4.03;3.60;;;;;;;11.05;69.05;101170.75;1643718;86;20968;-77
2021/09/20 03:59:33;;;;;;;5.83;3.05;;;;;;;11.03;69.05;101168.62;1649106;85;20935;-77
2021/09/20 04:01:59;;;;;;;3.80;3.05;;;;;;;11.02;69.09;101172.94;1648867;85;20918;-78
2021/09/20 04:04:26;;;;;;;3.80;3.37;;;;;;;11.00;69.09;101175.11;1649600;85;20930;-78
2021/09/20 04:06:52;;;;;;;5.03;3.25;;;;;;;10.98;69.13;101180.30;1651148;85;20935;-78
2021/09/20 04:09:19;;;;;;;4.50;3.05;;;;;;;10.97;69.17;101181.17;1661359;85;20947;-78
2021/09/20 04:11:45;;;;;;;;;;;;;;;10.95;69.20;101179.89;1653955;85;20974;-78
2021/09/20 04:14:11;;;;;;;3.47;3.15;;;;;;;10.94;69.45;101185.08;1647862;85;20131;-78
2021/09/20 04:16:38;;;;;;;4.08;3.15;;;;;;;10.89;69.25;101188.17;1652081;85;20930;-78
2021/09/20 04:19:05;;;;;;;3.50;3.12;;;;;;;10.86;69.29;101183.02;1650268;85;20907;-78
2021/09/20 04:21:31;;;;;;;6.08;3.40;;;;;;;10.84;69.31;101189.94;1651087;85;20980;-78
2021/09/20 04:23:57;;;;;;;9.38;4.80;;;;;;;10.73;69.50;101182.25;1649433;85;20946;-78
2021/09/20 04:26:23;;;;;;;12.28;9.85;;;;;;;10.75;69.24;101199.91;1649090;85;21566;-78
2021/09/20 04:28:52;;;;;;;10.90;8.08;;;;;;;10.67;69.25;101204.72;1651376;85;20899;-78
2021/09/20 04:31:18;;;;;;;7.03;6.12;;;;;;;10.58;69.31;101204.34;1651316;85;20983;-81
2021/09/20 04:33:44;;;;;;;7.20;6.33;;;;;;;10.53;69.32;101208.68;1653291;85;21095;-81
2021/09/20 04:36:11;;;;;;;10.78;7.92;;;;;;;10.44;69.40;101201.84;1648352;85;21364;-81
2021/09/20 04:38:37;;;;;;;9.35;7.15;;;;;;;10.40;69.41;101207.07;1649359;85;21045;-81
2021/09/20 04:41:04;;;;;;;8.55;6.30;;;;;;;10.34;69.41;101193.75;1650965;85;21062;-81
2021/09/20 04:43:30;;;;;;;11.97;6.65;;;;;;;10.27;69.39;101208.86;1651995;85;21152;-81
2021/09/20 04:45:57;;;;;;;11.53;5.70;;;;;;;10.18;69.44;101212.31;1648740;85;21143;-81
2021/09/20 04:48:23;;;;;;;6.05;4.97;;;;;;;10.12;69.49;101211.48;1655413;85;26661;-81
2021/09/20 04:50:52;;;;;;;6.47;4.33;;;;;;;10.06;69.53;101203.76;1644197;85;21128;-81
2021/09/20 04:53:19;;;;;;;3.92;3.22;;;;;;;10.01;69.54;101204.21;1654329;85;20995;-81
2021/09/20 04:55:47;;;;;;;4.35;3.55;;;;;;;9.94;69.56;101204.23;1652820;85;21025;-81
2021/09/20 04:58:13;;;;;;;5.90;3.45;;;;;;;9.86;69.54;101204.73;1652417;85;20985;-81
2021/09/20 05:00:41;;;;;;;5.53;3.50;;;;;;;9.81;69.62;101209.05;1654127;85;20927;-81
2021/09/20 05:03:07;;;;;;;4.25;3.60;;;;;;;9.76;69.65;101195.29;1655643;85;20936;-81
2021/09/20 05:05:33;;;;;;;3.72;3.27;;;;;;;9.70;69.60;101200.47;1656282;85;20958;-81
2021/09/20 05:08:02;;;;;;;4.45;3.00;;;;;;;9.65;69.62;101202.20;1652951;85;20914;-81
2021/09/20 05:10:29;;;;;;;3.75;3.10;;;;;;;9.59;69.68;101197.06;1654605;85;20978;-81
2021/09/20 05:12:55;;;;;;;5.12;3.27;;;;;;;9.57;69.70;101197.49;1659379;85;20914;-81
2021/09/20 05:15:23;;;;;;;4.72;3.02;;;;;;;9.54;69.75;101189.33;1647877;85;20883;-81
2021/09/20 05:17:49;;;;;;;4.53;3.70;;;;;;;9.50;69.80;101191.91;1646662;85;20931;-81
2021/09/20 05:20:18;;;;;;;5.65;3.50;;;;;;;9.50;69.84;101195.79;1648586;85;21086;-81
2021/09/20 05:22:45;;;;;;;3.85;3.47;;;;;;;9.49;69.92;101192.78;1650110;85;21163;-81
2021/09/20 05:25:12;;;;;;;4.80;3.95;;;;;;;9.50;69.93;101194.06;1643030;85;21096;-81
2021/09/20 05:27:38;;;;;;;4.03;3.42;;;;;;;9.53;70.02;101205.67;1645075;85;21057;-81
2021/09/20 05:30:08;;;;;;;3.77;3.35;;;;;;;9.55;70.04;101203.95;1648373;85;21075;-81
2021/09/20 05:32:36;;;;;;;3.77;3.05;;;;;;;9.56;70.04;101207.39;1650748;85;20973;-81
2021/09/20 05:35:03;;;;;;;22.62;3.90;;;;;;;9.57;70.09;101211.27;1648062;85;20898;-81
2021/09/20 05:37:36;;;;;;;6.37;3.40;;;;;;;9.59;70.05;101216.42;1643358;85;20916;-81
2021/09/20 05:40:03;;;;;;;4.20;3.65;;;;;;;9.59;70.14;101218.58;1646078;85;20919;-81
2021/09/20 05:42:28;;;;;;;;;;;;;;;9.61;70.22;101222.02;1648834;85;21416;-81
2021/09/20 05:44:55;;;;;;;6.17;3.15;;;;;;;9.66;70.66;101227.16;1620693;86;20198;-81
2021/09/20 05:47:21;;;;;;;5.80;4.22;;;;;;;9.70;70.30;101235.77;1600779;86;21116;-81
2021/09/20 05:49:53;;;;;;;5.83;4.05;;;;;;;9.73;70.34;101239.63;1604885;87;21131;-81
2021/09/20 05:52:22;;;;;;;7.58;4.42;;;;;;;9.78;70.40;101242.63;1600049;86;434235;-81
2021/09/20 05:54:48;;;;;;;6.50;4.47;;;;;;;9.84;70.47;101250.80;1627422;87;21040;-81
2021/09/20 05:57:15;;;;;;;4.45;3.80;;;;;;;9.89;70.51;101256.34;1634042;85;21084;-81
2021/09/20 05:59:41;;;;;;;7.90;4.62;;;;;;;9.94;70.56;101246.86;1629782;86;21079;-81
2021/09/20 06:02:08;;;;;;;10.98;4.80;;;;;;;10.03;70.62;101255.44;1643379;85;21174;-81
2021/09/20 06:04:35;;;;;;;5.00;3.95;;;;;;;10.08;70.59;101251.98;1641569;85;21068;-81
2021/09/20 06:07:01;;;;;;;6.33;4.45;;;;;;;10.13;70.59;101252.82;1633271;85;21744;-81
2021/09/20 06:09:27;;;;;;;6.67;4.75;;;;;;;10.22;70.65;101258.42;1628726;85;22388;-81
2021/09/20 06:11:54;;;;;;;5.45;4.87;;;;;;;10.28;70.70;101257.96;1627283;85;21099;-81
2021/09/20 06:14:20;;;;;;;5.40;4.90;;;;;;;10.36;70.72;101259.66;1617040;86;245166;-81
2021/09/20 06:16:47;;;;;;;7.15;4.62;;;;;;;10.45;70.76;101263.02;1644369;85;21103;-81
2021/09/20 06:19:13;;;;;;;9.48;6.40;;;;;;;10.50;70.74;101257.39;1632405;85;21118;-81
2021/09/20 06:21:39;;;;;;;24.00;15.00;;;;;;;10.57;70.75;101263.39;1637068;85;21123;-81
2021/09/20 06:24:06;;;;;;;8.53;6.85;;;;;;;10.63;70.79;101260.77;1634177;85;20967;-81
2021/09/20 06:26:35;;;;;;;6.87;5.35;;;;;;;10.70;70.83;101261.16;1636816;85;21067;-81
2021/09/20 06:29:01;;;;;;;6.28;5.67;;;;;;;10.77;70.84;101259.40;1627251;85;21591;-81
2021/09/20 06:31:27;;;;;;;7.67;4.92;;;;;;;10.83;70.88;101256.77;1636344;85;21508;-81
2021/09/20 06:33:53;;;;;;;6.53;5.40;;;;;;;10.91;70.92;101236.88;1637674;85;21058;-81
2021/09/20 06:36:20;;;;;;;6.75;4.58;;;;;;;10.91;70.92;101236.88;1633029;86;21125;-81
2021/09/20 06:38:46;;;;;;;4.95;4.25;;;;;;;11.07;70.93;101258.30;1625754;86;21087;-81
2021/09/20 06:41:13;;;;;;;6.40;5.15;;;;;;;11.13;70.98;101262.13;1631764;85;21082;-81
2021/09/20 06:43:39;;;;;;;5.58;4.60;;;;;;;11.20;71.02;101265.09;1624215;87;21766;-81
2021/09/20 06:46:05;;;;;;;6.22;4.58;;;;;;;11.25;71.00;101268.51;1638199;84;21064;-81
2021/09/20 06:48:32;;;;;;;6.97;4.80;;;;;;;11.28;71.00;101262.02;1685528;83;21476;-81
2021/09/20 06:51:05;;;;;;;10.03;5.08;;;;;;;11.32;71.02;101265.44;1675681;84;21098;-81
2021/09/20 06:53:31;;;;;;;6.83;4.55;;;;;;;11.34;71.01;101268.44;1671115;84;20968;-81
2021/09/20 06:55:58;;;;;;;8.63;4.80;;;;;;;11.35;71.06;101267.56;1675583;84;21108;-81
2021/09/20 06:58:24;;;;;;;;;;;;;;;11.38;71.06;101268.83;1678200;84;21067;-81
2021/09/20 07:00:51;;;;;;;4.95;4.42;;;;;;;11.40;71.28;101271.41;1675135;83;20207;-81
2021/09/20 07:03:17;;;;;;;10.63;5.42;;;;;;;11.42;71.11;101269.66;1684952;83;21569;-81
2021/09/20 07:05:43;;;;;;;6.30;4.75;;;;;;;11.46;71.16;101263.55;1684933;84;21061;-81
2021/09/20 07:08:10;;;;;;;5.25;4.47;;;;;;;11.53;71.25;101268.66;1678850;84;21139;-81
2021/09/20 07:10:36;;;;;;;5.42;4.70;;;;;;;11.59;71.19;101271.20;1681149;83;21080;-81
2021/09/20 07:13:08;;;;;;;4.80;4.22;;;;;;;11.66;71.26;101270.70;1682649;84;21070;-81
2021/09/20 07:15:31;;;;;;;4.97;4.42;;;;;;;11.73;71.18;101274.09;1676909;83;21591;-81
2021/09/20 07:17:58;;;;;;;6.12;5.53;;;;;;;11.77;71.25;101277.10;1664184;84;21139;-80
2021/09/20 07:20:24;;;;;;;6.78;5.35;;;;;;;11.83;71.25;101275.30;1684147;84;21031;-80
2021/09/20 07:22:50;;;;;;;7.22;5.35;;;;;;;11.88;71.27;101280.00;1670743;84;21546;-81
2021/09/20 07:25:16;;;;;;;7.33;5.15;;;;;;;11.95;71.34;101279.50;1665647;83;21135;-81
2021/09/20 07:27:43;;;;;;;8.58;5.20;;;;;;;12.01;71.35;101291.50;1670163;83;21111;-81
2021/09/20 07:30:17;;;;;;;7.20;5.15;;;;;;;12.07;71.33;101289.70;1670994;83;21044;-81
2021/09/20 07:32:41;;;;;;;6.40;4.45;;;;;;;12.10;71.31;101289.67;1675649;83;21336;-81
2021/09/20 07:35:08;;;;;;;;;;;;;;;12.11;71.31;101287.50;1684986;83;21450;-81
2021/09/20 07:37:34;;;;;;;7.87;4.92;;;;;;;12.15;71.39;101289.62;1670270;83;20163;-81
2021/09/20 07:40:01;;;;;;;5.20;4.60;;;;;;;12.16;71.29;101290.89;1670287;83;21072;-81
2021/09/20 07:42:27;;;;;;;5.75;4.60;;;;;;;12.19;71.36;101296.05;1681660;84;20957;-81
2021/09/20 07:44:54;;;;;;;7.58;4.30;;;;;;;12.25;71.34;101301.59;1683985;84;21515;-81
2021/09/20 07:47:26;;;;;;;5.72;5.20;;;;;;;12.28;71.37;101296.81;1681819;84;21064;-81
2021/09/20 07:49:52;;;;;;;5.70;4.40;;;;;;;12.30;71.34;101297.66;1673966;84;21123;-81
2021/09/20 07:52:19;;;;;;;4.85;4.37;;;;;;;12.29;71.27;101298.53;1670860;84;21059;-81
2021/09/20 07:54:45;;;;;;;;;;;;;;;12.28;71.34;101308.05;1675566;83;21078;-81
2021/09/20 07:57:12;;;;;;;4.80;4.40;;;;;;;12.26;71.39;101308.06;1677046;84;20705;-81
2021/09/20 07:59:38;;;;;;;6.90;4.75;;;;;;;12.28;71.37;101306.75;1679838;84;21478;-81
2021/09/20 08:02:04;;;;;;;6.47;5.40;;;;;;;12.28;71.38;101302.86;1679378;84;20972;-81
2021/09/20 08:04:31;;;;;;;7.25;5.42;;;;;;;12.30;71.45;101305.44;1680499;83;21143;-81
2021/09/20 08:06:58;;;;;;;6.33;5.65;;;;;;;12.35;71.47;101301.05;1681388;84;21103;-81
2021/09/20 08:09:25;;;;;;;5.67;5.17;;;;;;;12.39;71.51;101295.80;1679564;83;21068;-81
2021/09/20 08:11:52;;;;;;;6.53;5.20;;;;;;;12.45;71.50;101304.81;1669381;83;21107;-81
2021/09/20 08:14:26;;;;;;;7.33;4.90;;;;;;;12.51;71.53;101296.92;1677465;83;21032;-81
2021/09/20 08:16:53;;;;;;;7.85;5.55;;;;;;;12.60;71.52;101297.23;1672464;84;21466;-81
2021/09/20 08:19:19;;;;;;;6.53;5.20;;;;;;;12.68;71.53;101297.14;1677370;84;21120;-81
2021/09/20 08:21:46;;;;;;;6.03;5.42;;;;;;;12.80;71.58;101294.37;1679337;83;21094;-81
2021/09/20 08:24:12;;;;;;;5.78;4.75;;;;;;;12.86;71.45;101303.38;1679870;84;21066;-81
2021/09/20 08:26:44;;;;;;;5.62;4.62;;;;;;;12.92;71.51;101295.50;1675600;84;21056;-81
2021/09/20 08:29:11;;;;;;;5.85;5.35;;;;;;;13.02;71.55;101298.78;1681775;84;21045;-81
2021/09/20 08:31:37;;;;;;;7.28;4.95;;;;;;;13.14;71.55;101307.24;1666990;84;21078;-81
2021/09/20 08:34:04;;;;;;;;;;;;;;;13.27;71.54;101309.69;1686537;83;21068;-81
2021/09/20 08:36:31;;;;;;;4.97;4.22;;;;;;;13.38;71.49;101303.88;1675259;83;20186;-81
2021/09/20 08:38:57;;;;;;;4.55;3.98;;;;;;;13.53;71.55;101304.45;1678276;83;21127;-81
2021/09/20 08:41:24;;;;;;;6.20;4.40;;;;;;;13.70;71.47;101311.09;1671410;83;21036;-81
2021/09/20 08:43:50;;;;;;;4.58;4.12;;;;;;;13.88;71.44;101311.63;1679815;84;21052;-81
2021/09/20 08:46:17;;;;;;;;;;;;;;;14.15;71.68;101311.96;1673523;84;21040;-81
2021/09/20 08:48:47;;;;;;;4.90;3.50;;;;;;;14.33;71.11;101310.74;1657694;85;20171;-81
2021/09/20 08:51:16;;;;;;;4.30;3.45;;;;;;;14.46;71.29;101312.23;1666117;85;21138;-81
2021/09/20 08:53:43;;;;;;;4.58;4.10;;;;;;;14.58;71.27;101311.95;1657331;85;21040;-81
2021/09/20 08:56:10;;;;;;;5.22;3.65;;;;;;;14.70;71.30;101309.09;1663373;85;21055;-81
2021/09/20 08:58:36;;;;;;;3.75;3.45;;;;;;;14.84;71.24;101316.15;1657712;84;21082;-81
2021/09/20 09:01:03;;;;;;;3.92;3.30;;;;;;;14.94;71.12;101307.69;1669863;85;21593;-81
2021/09/20 09:03:31;;;;;;;3.05;2.70;;;;;;;15.03;71.17;101305.31;1663038;84;21109;-81
2021/09/20 09:05:58;;;;;;;7.75;2.83;;;;;;;15.13;71.10;101311.55;1664282;85;21128;-81
2021/09/20 09:08:34;;;;;;;;;;;;;;;15.19;71.04;101311.85;1664199;85;21554;-81
2021/09/20 09:11:15;;;;;;;4.22;3.65;;;;;;;15.24;70.60;101314.75;1647876;84;20177;-81
2021/09/20 09:13:47;;;;;;;5.87;2.87;;;;;;;15.23;70.77;101314.80;1651520;85;21379;-81
2021/09/20 09:16:26;;;;;;;3.37;2.65;;;;;;;15.19;70.81;101312.70;1654378;85;21057;-81
2021/09/20 09:19:08;;;;;;;3.12;2.92;;;;;;;15.20;70.81;101304.45;1651228;85;21679;-81
2021/09/20 09:21:41;;;;;;;4.50;2.85;;;;;;;15.20;70.65;101307.05;1653738;84;21094;-81
2021/09/20 09:24:20;;;;;;;5.90;2.70;;;;;;;15.07;70.58;101310.87;1661521;85;21019;-81
2021/09/20 09:26:59;;;;;;;4.53;2.02;;;;;;;14.99;70.51;101308.44;1659969;84;21049;-81
2021/09/20 09:29:32;;;;;;;4.08;2.47;;;;;;;14.93;70.51;101312.93;1659405;85;21115;-81
2021/09/20 09:32:01;;;;;;;3.47;2.58;;;;;;;14.92;70.58;101309.91;1653526;85;20957;-81
2021/09/20 09:34:33;;;;;;;4.92;2.15;;;;;;;14.94;70.46;101311.59;1656476;84;21028;-81
2021/09/20 09:37:11;;;;;;;3.70;2.70;;;;;;;14.96;70.39;101315.47;1659469;85;20969;-81
2021/09/20 09:39:40;;;;;;;2.58;2.37;;;;;;;14.94;70.32;101312.89;1650072;85;21006;-81
2021/09/20 09:42:28;;;;;;;4.25;2.58;;;;;;;14.91;70.24;101306.45;1657715;84;20896;-81
2021/09/20 09:44:55;;;;;;;3.75;2.62;;;;;;;14.88;70.15;101307.83;1651381;84;20926;-81
2021/09/20 09:47:30;;;;;;;3.87;2.30;;;;;;;14.82;70.01;101314.02;1665494;83;20937;-81
2021/09/20 09:50:19;;;;;;;3.30;2.20;;;;;;;14.77;70.06;101311.11;1674908;83;20937;-81
2021/09/20 09:52:55;;;;;;;3.80;2.85;;;;;;;14.80;70.10;101307.14;1612236;87;21001;-81
2021/09/20 09:55:24;;;;;;;2.12;1.92;;;;;;;14.88;70.11;101307.38;1610597;88;20956;-81
2021/09/20 09:57:52;;;;;;;3.95;1.80;;;;;;;14.96;69.89;101302.44;1678019;84;20886;-81
2021/09/20 10:00:22;;;;;;;3.33;1.82;;;;;;;15.03;69.88;101298.80;1677419;84;20929;-81
2021/09/20 10:02:51;;;;;;;2.90;2.00;;;;;;;15.12;69.80;101300.72;1699479;82;21017;-81
2021/09/20 10:05:21;;;;;;;1.92;1.20;;;;;;;15.23;69.70;101306.53;1679836;84;20897;-81
2021/09/20 10:07:50;;;;;;;1.60;1.50;;;;;;;15.33;69.60;101309.77;1672734;84;20961;-81
2021/09/20 10:10:24;;;;;;;2.92;1.92;;;;;;;15.46;69.56;101302.51;1681532;83;20962;-81
2021/09/20 10:12:58;;;;;;;1.37;1.27;;;;;;;15.57;69.32;101308.79;1678637;84;20910;-81
2021/09/20 10:15:26;;;;;;;2.35;1.50;;;;;;;15.59;69.12;101310.91;1682535;83;20921;-81
2021/09/20 10:17:53;;;;;;;2.20;1.12;;;;;;;15.62;69.05;101314.27;1674118;83;20929;-81
2021/09/20 10:20:22;;;;;;;;;;;;;;;15.61;68.87;101314.30;1675623;83;20866;-81
2021/09/20 10:22:49;;;;;;;2.33;1.50;;;;;;;15.56;68.28;101305.30;1679142;83;20144;-81
2021/09/20 10:25:18;;;;;;;5.20;2.87;;;;;;;15.50;68.70;101314.57;1684684;83;21551;-81
2021/09/20 10:27:46;;;;;;;3.40;2.30;;;;;;;15.45;68.62;101314.69;1680435;84;20958;-82
2021/09/20 10:30:30;;;;;;;22.73;12.13;;;;;;;15.40;68.57;101311.33;1682189;83;21027;-81
2021/09/20 10:33:07;;;;;;;7.53;5.72;;;;;;;15.34;68.53;101317.14;1687447;83;21585;-81
2021/09/20 10:35:38;;;;;;;39.42;16.12;;;;;;;15.29;68.45;101317.70;1670002;83;21064;-81
2021/09/20 10:38:29;;;;;;;56.18;25.72;;;;;;;15.28;68.39;101322.05;1679312;83;21025;-81
2021/09/20 10:41:09;;;;;;;6.60;4.33;;;;;;;15.27;68.28;101323.39;1670372;84;21592;-81
2021/09/20 10:43:38;;;;;;;1.92;1.40;;;;;;;15.28;68.22;101324.66;1676827;83;21071;-81
2021/09/20 10:46:22;;;;;;;4.80;3.50;;;;;;;15.30;68.12;101327.23;1676999;83;21069;-81
2021/09/20 10:49:02;;;;;;;1.47;1.07;;;;;;;15.33;68.10;101334.97;1669808;83;21711;-82
2021/09/20 10:51:40;;;;;;;6.60;2.42;;;;;;;15.32;67.98;101331.51;1678425;84;21044;-82
2021/09/20 10:54:21;;;;;;;1.90;1.20;;;;;;;15.37;67.91;101330.09;1668958;83;21043;-82
2021/09/20 10:56:56;;;;;;;4.20;1.42;;;;;;;15.40;67.79;101325.67;1677474;84;21530;-82
2021/09/20 10:59:27;;;;;;;5.30;4.40;;;;;;;15.41;67.72;101326.08;1666398;83;20961;-82
2021/09/20 11:01:58;;;;;;;1.92;1.55;;;;;;;15.41;67.64;101327.38;1668358;84;21488;-82
2021/09/20 11:04:34;;;;;;;1.92;1.02;;;;;;;15.39;67.51;101324.41;1683631;83;20990;-82
2021/09/20 11:07:20;;;;;;;1.20;1.10;;;;;;;15.37;67.51;101326.19;1661219;84;23042;-82
2021/09/20 11:09:56;;;;;;;1.00;0.90;;;;;;;15.45;67.45;101317.29;1669513;84;21523;-82
2021/09/20 11:12:24;;;;;;;0.98;0.98;;;;;;;15.62;67.47;101321.23;1675717;83;21248;-82
2021/09/20 11:15:08;;;;;;;3.45;0.90;;;;;;;15.79;67.25;101326.86;1685262;83;21515;-82
2021/09/20 11:17:41;;;;;;;1.05;0.90;;;;;;;15.94;67.16;101319.09;1668327;83;21673;-82
2021/09/20 11:20:26;;;;;;;1.27;0.90;;;;;;;16.01;66.89;101328.46;1676306;83;21615;-82
2021/09/20 11:23:21;;;;;;;1.62;0.93;;;;;;;15.97;66.66;101328.14;1673146;84;21029;-82
2021/09/20 11:26:17;;;;;;;1.20;1.00;;;;;;;15.89;66.57;101332.25;1669354;84;21485;-82
2021/09/20 11:28:53;;;;;;;2.00;1.15;;;;;;;15.81;66.46;101322.02;1665815;84;21637;-82
2021/09/20 11:31:26;;;;;;;;;;;;;;;15.76;66.44;101328.25;1592250;88;21380;-82
2021/09/20 11:33:52;;;;;;;2.22;1.00;;;;;;;15.73;65.72;101334.40;1593698;88;20884;-82
2021/09/20 11:36:29;;;;;;;1.12;0.90;;;;;;;15.77;66.17;101330.81;1597575;88;22263;-82